KBCT

Boca Raton Airport

Boca Raton, Florida, USA
METAR KBCT 221751Z 12010KT 5SM RA SCT014 BKN020 25/23 A3007
Observed Flight Rules
Apr-22 @ 17:51 UTC (16 minutes ago) Marginal Visual Flight Rules
Wind Visibility Clouds Conditions
120° at 10 knots 5 miles
  • Scattered at 1,400' AGL
  • Broken at 2,000' AGL
  • Rain
Temperatures Readings
Current 25°C / 77°F
Dewpoint 23°C / 73°F
Humidity 89%
Altimeter 30.07" Hg
Pressure 1018 hPa
Elevation 4
METAR KBCT 221751Z 12010KT 5SM RA SCT014 BKN020 25/23 A3007
Observed Flight Rules
Apr-22 @ 17:51 UTC
(16 minutes ago)
MVFR
Wind Visibility
120° at 10 knots 5 miles
Clouds
  • Scattered at 1,400' AGL
  • Broken at 2,000' AGL
Conditions
  • Rain
Temperature Dewpoint
25°C / 77°F 23°C / 73°F
Humidity Altimeter Pressure
89% 30.07" Hg 1018 hPa